Time,TemperatureF,DewpointF,PressureIn,WindDirection,WindDirectionDegrees,WindSpeedMPH,WindSpeedGustMPH,Humidity,HourlyPrecipIn,Conditions,Clouds,dailyrainin,SoftwareType,DateUTC
2013-07-20 00:14:00,72.0,69.0,29.75,WSW,253,3.0,-999.0,90,-99.99,,,0.11,weatherlink.com 1.10,2013-07-20 04:14:00,
2013-07-20 00:59:00,70.3,68.0,29.75,West,278,0.0,-999.0,93,-99.99,,,0.20,weatherlink.com 1.10,2013-07-20 04:59:00,
2013-07-20 01:14:00,69.9,68.0,29.73,West,260,0.0,-999.0,93,-99.99,,,0.22,weatherlink.com 1.10,2013-07-20 05:14:00,
2013-07-20 01:29:00,69.6,68.0,29.72,SSW,209,4.0,-999.0,95,-99.99,,,0.23,weatherlink.com 1.10,2013-07-20 05:29:00,
2013-07-20 01:44:00,69.3,68.0,29.71,SW,229,2.0,-999.0,95,-99.99,,,0.23,weatherlink.com 1.10,2013-07-20 05:44:00,
2013-07-20 01:59:00,69.2,68.0,29.70,SW,236,0.0,-999.0,95,-99.99,,,0.24,weatherlink.com 1.10,2013-07-20 05:59:00,
2013-07-20 02:14:00,69.3,68.0,29.70,WSW,240,0.0,-999.0,95,-99.99,,,0.24,weatherlink.com 1.10,2013-07-20 06:14:00,
2013-07-20 02:29:00,69.3,68.0,29.70,SW,223,0.0,-999.0,96,-99.99,,,0.24,weatherlink.com 1.10,2013-07-20 06:29:00,
2013-07-20 02:44:00,69.5,68.0,29.70,WSW,239,0.0,-999.0,96,-99.99,,,0.24,weatherlink.com 1.10,2013-07-20 06:44:00,
2013-07-20 02:59:00,69.7,69.0,29.71,West,267,0.0,-999.0,96,-99.99,,,0.25,weatherlink.com 1.10,2013-07-20 06:59:00,
2013-07-20 03:29:00,69.8,69.0,29.73,West,280,4.0,-999.0,96,-99.99,,,0.49,weatherlink.com 1.10,2013-07-20 07:29:00,
2013-07-20 03:44:00,69.4,68.0,29.71,WSW,255,0.0,-999.0,96,-99.99,,,0.52,weatherlink.com 1.10,2013-07-20 07:44:00,
2013-07-20 03:59:00,69.0,68.0,29.71,WSW,247,2.0,-999.0,96,-99.99,,,0.52,weatherlink.com 1.10,2013-07-20 07:59:00,
2013-07-20 04:14:00,68.6,68.0,29.70,SSW,198,1.0,-999.0,96,-99.99,,,0.53,weatherlink.com 1.10,2013-07-20 08:14:00,
2013-07-20 04:45:00,69.3,68.0,29.70,WSW,249,0.0,-999.0,96,-99.99,,,0.53,weatherlink.com 1.10,2013-07-20 08:45:00,
2013-07-20 05:00:00,69.5,68.0,29.68,SW,220,0.0,-999.0,96,-99.99,,,0.53,weatherlink.com 1.10,2013-07-20 09:00:00,
2013-07-20 05:15:00,69.6,69.0,29.69,WSW,244,0.0,-999.0,96,-99.99,,,0.53,weatherlink.com 1.10,2013-07-20 09:15:00,
2013-07-20 05:30:00,69.5,68.0,29.68,WSW,242,7.0,-999.0,95,-99.99,,,0.53,weatherlink.com 1.10,2013-07-20 09:30:00,
2013-07-20 05:45:00,69.8,68.0,29.69,SW,234,3.0,-999.0,94,-99.99,,,0.53,weatherlink.com 1.10,2013-07-20 09:45:00,
2013-07-20 06:00:00,69.8,68.0,29.69,SSW,209,6.0,-999.0,93,-99.99,,,0.53,weatherlink.com 1.10,2013-07-20 10:00:00,
2013-07-20 06:15:00,69.8,67.0,29.69,WSW,238,0.0,-999.0,92,-99.99,,,0.53,weatherlink.com 1.10,2013-07-20 10:15:00,
2013-07-20 07:00:00,70.8,68.0,29.66,WSW,240,4.0,-999.0,91,-99.99,,,0.53,weatherlink.com 1.10,2013-07-20 11:00:00,
2013-07-20 07:30:00,71.3,69.0,29.68,WSW,238,1.0,-999.0,91,-99.99,,,0.53,weatherlink.com 1.10,2013-07-20 11:30:00,
2013-07-20 07:45:00,71.7,69.0,29.68,WSW,238,5.0,-999.0,91,-99.99,,,0.53,weatherlink.com 1.10,2013-07-20 11:45:00,
2013-07-20 08:00:00,72.2,69.0,29.67,SW,229,6.0,-999.0,89,-99.99,,,0.53,weatherlink.com 1.10,2013-07-20 12:00:00,
2013-07-20 08:15:00,72.7,69.0,29.67,SW,221,3.0,-999.0,89,-99.99,,,0.53,weatherlink.com 1.10,2013-07-20 12:15:00,
2013-07-20 08:30:00,72.9,69.0,29.67,WSW,244,2.0,-999.0,88,-99.99,,,0.53,weatherlink.com 1.10,2013-07-20 12:30:00,
2013-07-20 09:00:00,74.4,70.0,29.71,WNW,291,3.0,-999.0,86,-99.99,,,0.53,weatherlink.com 1.10,2013-07-20 13:00:00,
2013-07-20 09:15:00,74.6,70.0,29.70,NW,313,2.0,-999.0,84,-99.99,,,0.53,weatherlink.com 1.10,2013-07-20 13:15:00,
2013-07-20 09:30:00,75.5,70.0,29.71,NW,321,0.0,-999.0,83,-99.99,,,0.53,weatherlink.com 1.10,2013-07-20 13:30:00,
2013-07-20 09:45:00,75.6,69.0,29.70,West,268,3.0,-999.0,80,-99.99,,,0.53,weatherlink.com 1.10,2013-07-20 13:45:00,
2013-07-20 10:00:00,75.6,69.0,29.71,WNW,298,3.0,-999.0,79,-99.99,,,0.53,weatherlink.com 1.10,2013-07-20 14:00:00,
2013-07-20 10:15:00,75.4,69.0,29.71,WSW,240,3.0,-999.0,81,-99.99,,,0.53,weatherlink.com 1.10,2013-07-20 14:15:00,
2013-07-20 10:30:00,76.2,70.0,29.71,WNW,302,1.0,-999.0,80,-99.99,,,0.53,weatherlink.com 1.10,2013-07-20 14:30:00,
2013-07-20 10:45:00,76.5,69.0,29.71,NW,304,3.0,-999.0,77,-99.99,,,0.53,weatherlink.com 1.10,2013-07-20 14:45:00,
2013-07-20 11:15:00,75.5,69.0,29.71,WNW,296,0.0,-999.0,79,-99.99,,,0.53,weatherlink.com 1.10,2013-07-20 15:15:00,
2013-07-20 11:30:00,75.4,68.0,29.72,West,272,8.0,-999.0,77,-99.99,,,0.53,weatherlink.com 1.10,2013-07-20 15:30:00,
2013-07-20 11:45:00,76.3,69.0,29.71,WNW,294,7.0,-999.0,77,-99.99,,,0.53,weatherlink.com 1.10,2013-07-20 15:45:00,
2013-07-20 12:01:00,76.5,68.0,29.71,West,271,3.0,-999.0,76,-99.99,,,0.53,weatherlink.com 1.10,2013-07-20 16:01:00,
2013-07-20 12:16:00,76.2,69.0,29.71,West,265,7.0,-999.0,78,-99.99,,,0.53,weatherlink.com 1.10,2013-07-20 16:16:00,
2013-07-20 12:31:00,75.6,69.0,29.71,West,274,4.0,-999.0,79,-99.99,,,0.53,weatherlink.com 1.10,2013-07-20 16:31:00,
2013-07-20 13:01:00,73.0,67.0,29.72,NNE,13,4.0,-999.0,81,-99.99,,,0.53,weatherlink.com 1.10,2013-07-20 17:01:00,
2013-07-20 13:16:00,69.1,65.0,29.73,WNW,299,0.0,-999.0,86,-99.99,,,0.73,weatherlink.com 1.10,2013-07-20 17:16:00,
2013-07-20 13:31:00,67.1,65.0,29.73,West,279,0.0,-999.0,91,-99.99,,,1.02,weatherlink.com 1.10,2013-07-20 17:31:00,
2013-07-20 13:46:00,66.2,64.0,29.73,WSW,241,0.0,-999.0,93,-99.99,,,1.03,weatherlink.com 1.10,2013-07-20 17:46:00,
2013-07-20 14:01:00,66.9,65.0,29.74,SW,236,4.0,-999.0,94,-99.99,,,0.00,weatherlink.com 1.10,2013-07-20 18:01:00,
2013-07-20 14:16:00,65.8,64.0,29.75,WSW,241,6.0,-999.0,92,-99.99,,,0.01,weatherlink.com 1.10,2013-07-20 18:16:00,
2013-07-20 14:46:00,65.3,64.0,29.75,WSW,240,4.0,-999.0,94,-99.99,,,0.02,weatherlink.com 1.10,2013-07-20 18:46:00,
2013-07-20 15:16:00,66.3,63.0,29.74,WSW,244,0.0,-999.0,90,-99.99,,,0.02,weatherlink.com 1.10,2013-07-20 19:16:00,
2013-07-20 15:46:00,68.8,65.0,29.75,SW,233,5.0,-999.0,88,-99.99,,,0.02,weatherlink.com 1.10,2013-07-20 19:46:00,
2013-07-20 16:16:00,71.9,65.0,29.75,WNW,294,3.0,-999.0,80,-99.99,,,0.02,weatherlink.com 1.10,2013-07-20 20:16:00,
2013-07-20 16:32:00,71.7,66.0,29.76,WNW,290,2.0,-999.0,81,-99.99,,,0.02,weatherlink.com 1.10,2013-07-20 20:32:00,
2013-07-20 16:47:00,71.8,66.0,29.75,West,265,0.0,-999.0,82,-99.99,,,0.02,weatherlink.com 1.10,2013-07-20 20:47:00,
2013-07-20 17:02:00,72.3,66.0,29.76,WSW,249,0.0,-999.0,81,-99.99,,,0.02,weatherlink.com 1.10,2013-07-20 21:02:00,
2013-07-20 17:17:00,72.0,65.0,29.76,WSW,252,0.0,-999.0,79,-99.99,,,0.02,weatherlink.com 1.10,2013-07-20 21:17:00,
2013-07-20 17:32:00,71.7,65.0,29.76,SSW,208,0.0,-999.0,79,-99.99,,,0.02,weatherlink.com 1.10,2013-07-20 21:32:00,
2013-07-20 18:02:00,72.7,66.0,29.76,WSW,247,4.0,-999.0,79,-99.99,,,0.02,weatherlink.com 1.10,2013-07-20 22:02:00,
2013-07-20 18:17:00,73.0,66.0,29.76,SW,236,3.0,-999.0,78,-99.99,,,0.02,weatherlink.com 1.10,2013-07-20 22:17:00,
2013-07-20 18:32:00,73.1,66.0,29.76,WSW,247,0.0,-999.0,79,-99.99,,,0.02,weatherlink.com 1.10,2013-07-20 22:32:00,
2013-07-20 18:47:00,73.2,66.0,29.76,WSW,254,2.0,-999.0,78,-99.99,,,0.02,weatherlink.com 1.10,2013-07-20 22:47:00,
2013-07-20 19:02:00,72.8,67.0,29.76,WSW,242,0.0,-999.0,81,-99.99,,,0.02,weatherlink.com 1.10,2013-07-20 23:02:00,
2013-07-20 19:17:00,72.8,66.0,29.77,WSW,244,0.0,-999.0,80,-99.99,,,0.02,weatherlink.com 1.10,2013-07-20 23:17:00,
2013-07-20 19:32:00,72.6,67.0,29.77,WSW,244,0.0,-999.0,81,-99.99,,,0.02,weatherlink.com 1.10,2013-07-20 23:32:00,
2013-07-20 19:47:00,72.5,66.0,29.77,WSW,244,4.0,-999.0,81,-99.99,,,0.02,weatherlink.com 1.10,2013-07-20 23:47:00,
2013-07-20 20:02:00,72.2,66.0,29.77,WSW,244,2.0,-999.0,82,-99.99,,,0.02,weatherlink.com 1.10,2013-07-21 00:02:00,
2013-07-20 20:17:00,71.8,66.0,29.78,WSW,244,0.0,-999.0,82,-99.99,,,0.02,weatherlink.com 1.10,2013-07-21 00:17:00,
2013-07-20 20:32:00,71.2,66.0,29.78,WSW,244,2.0,-999.0,82,-99.99,,,0.02,weatherlink.com 1.10,2013-07-21 00:32:00,
2013-07-20 20:47:00,70.6,66.0,29.78,WSW,244,0.0,-999.0,84,-99.99,,,0.02,weatherlink.com 1.10,2013-07-21 00:47:00,
2013-07-20 21:02:00,69.9,65.0,29.79,WSW,244,0.0,-999.0,85,-99.99,,,0.02,weatherlink.com 1.10,2013-07-21 01:02:00,
2013-07-20 21:17:00,69.1,65.0,29.80,WSW,244,0.0,-999.0,86,-99.99,,,0.02,weatherlink.com 1.10,2013-07-21 01:17:00,
2013-07-20 21:32:00,68.8,65.0,29.80,WSW,244,0.0,-999.0,86,-99.99,,,0.02,weatherlink.com 1.10,2013-07-21 01:32:00,
2013-07-20 21:47:00,68.6,65.0,29.81,WSW,244,0.0,-999.0,87,-99.99,,,0.02,weatherlink.com 1.10,2013-07-21 01:47:00,
2013-07-20 22:17:00,68.1,65.0,29.82,WSW,244,0.0,-999.0,88,-99.99,,,0.02,weatherlink.com 1.10,2013-07-21 02:17:00,
2013-07-20 23:17:00,67.5,64.0,29.82,WSW,244,0.0,-999.0,89,-99.99,,,0.02,weatherlink.com 1.10,2013-07-21 03:17:00,
2013-07-20 23:32:00,67.3,64.0,29.83,WSW,244,0.0,-999.0,89,-99.99,,,0.02,weatherlink.com 1.10,2013-07-21 03:32:00,
2013-07-20 23:47:00,67.3,64.0,29.83,WSW,244,0.0,-999.0,90,-99.99,,,0.02,weatherlink.com 1.10,2013-07-21 03:47:00,